sensor_id;sensor_type;location;lat;lon;timestamp;pressure;altitude;pressure_sealevel;temperature;humidity
57847;BME280;43675;50.030;21.952;2022-09-09T00:04:03;98346.14;;;18.00;75.43
57847;BME280;43675;50.030;21.952;2022-09-09T00:06:33;98338.01;;;17.95;75.46
57847;BME280;43675;50.030;21.952;2022-09-09T00:09:17;98337.45;;;17.93;75.46
57847;BME280;43675;50.030;21.952;2022-09-09T00:11:52;98339.35;;;17.90;75.47
57847;BME280;43675;50.030;21.952;2022-09-09T00:17:14;98348.02;;;17.82;75.60
57847;BME280;43675;50.030;21.952;2022-09-09T00:19:56;98348.83;;;17.77;75.62
57847;BME280;43675;50.030;21.952;2022-09-09T00:22:28;98352.90;;;17.77;75.68
57847;BME280;43675;50.030;21.952;2022-09-09T00:24:55;98357.50;;;17.77;75.71
57847;BME280;43675;50.030;21.952;2022-09-09T00:30:15;98357.81;;;17.83;75.78
57847;BME280;43675;50.030;21.952;2022-09-09T00:32:41;98352.09;;;17.84;75.83
57847;BME280;43675;50.030;21.952;2022-09-09T00:35:33;98352.38;;;17.85;75.83
57847;BME280;43675;50.030;21.952;2022-09-09T00:38:14;98358.08;;;17.89;75.76
57847;BME280;43675;50.030;21.952;2022-09-09T00:41:09;98362.16;;;17.86;75.76
57847;BME280;43675;50.030;21.952;2022-09-09T00:43:39;98360.51;;;17.88;75.75
57847;BME280;43675;50.030;21.952;2022-09-09T00:49:15;98354.55;;;17.88;75.69
57847;BME280;43675;50.030;21.952;2022-09-09T00:51:46;98355.65;;;17.87;75.64
57847;BME280;43675;50.030;21.952;2022-09-09T00:56:51;98348.84;;;17.82;75.64
57847;BME280;43675;50.030;21.952;2022-09-09T00:59:25;98348.56;;;17.81;75.64
57847;BME280;43675;50.030;21.952;2022-09-09T01:01:51;98347.75;;;17.81;75.64
57847;BME280;43675;50.030;21.952;2022-09-09T01:04:21;98348.57;;;17.79;75.68
57847;BME280;43675;50.030;21.952;2022-09-09T01:06:50;98352.90;;;17.77;75.70
57847;BME280;43675;50.030;21.952;2022-09-09T01:09:25;98356.97;;;17.77;75.71
57847;BME280;43675;50.030;21.952;2022-09-09T01:12:01;98363.22;;;17.78;75.73
57847;BME280;43675;50.030;21.952;2022-09-09T01:20:17;98359.68;;;17.80;75.75
57847;BME280;43675;50.030;21.952;2022-09-09T01:28:32;98369.75;;;17.79;75.69
57847;BME280;43675;50.030;21.952;2022-09-09T01:31:00;98368.11;;;17.78;75.69
57847;BME280;43675;50.030;21.952;2022-09-09T01:33:27;98361.60;;;17.79;75.62
57847;BME280;43675;50.030;21.952;2022-09-09T01:36:06;98366.47;;;17.80;75.58
57847;BME280;43675;50.030;21.952;2022-09-09T01:38:33;98367.83;;;17.77;75.56
57847;BME280;43675;50.030;21.952;2022-09-09T01:41:06;98365.38;;;17.73;75.60
57847;BME280;43675;50.030;21.952;2022-09-09T01:43:32;98375.69;;;17.74;75.62
57847;BME280;43675;50.030;21.952;2022-09-09T01:46:00;98372.44;;;17.74;75.59
57847;BME280;43675;50.030;21.952;2022-09-09T01:48:27;98369.44;;;17.73;75.55
57847;BME280;43675;50.030;21.952;2022-09-09T01:50:53;98378.13;;;17.73;75.53
57847;BME280;43675;50.030;21.952;2022-09-09T01:53:20;98375.41;;;17.73;75.55
57847;BME280;43675;50.030;21.952;2022-09-09T01:55:58;98377.30;;;17.72;75.49
57847;BME280;43675;50.030;21.952;2022-09-09T02:01:07;98378.13;;;17.73;75.45
57847;BME280;43675;50.030;21.952;2022-09-09T02:03:35;98375.16;;;17.72;75.46
57847;BME280;43675;50.030;21.952;2022-09-09T02:06:09;98379.23;;;17.72;75.43
57847;BME280;43675;50.030;21.952;2022-09-09T02:08:52;98374.88;;;17.73;75.39
57847;BME280;43675;50.030;21.952;2022-09-09T02:11:17;98371.08;;;17.74;75.36
57847;BME280;43675;50.030;21.952;2022-09-09T02:13:48;98370.80;;;17.73;75.33
57847;BME280;43675;50.030;21.952;2022-09-09T02:16:27;98377.59;;;17.73;75.29
57847;BME280;43675;50.030;21.952;2022-09-09T02:19:29;98366.45;;;17.72;75.25
57847;BME280;43675;50.030;21.952;2022-09-09T02:21:30;98366.45;;;17.70;75.28
57847;BME280;43675;50.030;21.952;2022-09-09T02:24:06;98372.14;;;17.68;75.33
57847;BME280;43675;50.030;21.952;2022-09-09T02:26:33;98368.34;;;17.69;75.35
57847;BME280;43675;50.030;21.952;2022-09-09T02:29:02;98369.98;;;17.70;75.34
57847;BME280;43675;50.030;21.952;2022-09-09T02:31:30;98368.38;;;17.72;75.36
57847;BME280;43675;50.030;21.952;2022-09-09T02:34:00;98356.41;;;17.73;75.32
57847;BME280;43675;50.030;21.952;2022-09-09T02:36:29;98363.48;;;17.74;75.33
57847;BME280;43675;50.030;21.952;2022-09-09T02:38:56;98362.94;;;17.74;75.34
57847;BME280;43675;50.030;21.952;2022-09-09T02:41:34;98372.72;;;17.78;75.31
57847;BME280;43675;50.030;21.952;2022-09-09T02:44:01;98370.54;;;17.77;75.31
57847;BME280;43675;50.030;21.952;2022-09-09T02:49:11;98371.89;;;17.80;75.21
57847;BME280;43675;50.030;21.952;2022-09-09T02:54:30;98379.78;;;17.79;75.16
57847;BME280;43675;50.030;21.952;2022-09-09T02:57:12;98378.14;;;17.80;75.15
57847;BME280;43675;50.030;21.952;2022-09-09T02:59:39;98378.42;;;17.79;75.21
57847;BME280;43675;50.030;21.952;2022-09-09T03:02:05;98375.71;;;17.79;75.19
57847;BME280;43675;50.030;21.952;2022-09-09T03:04:31;98377.89;;;17.82;75.11
57847;BME280;43675;50.030;21.952;2022-09-09T03:06:58;98386.31;;;17.83;75.08
57847;BME280;43675;50.030;21.952;2022-09-09T03:09:24;98388.73;;;17.84;75.11
57847;BME280;43675;50.030;21.952;2022-09-09T03:11:50;98389.56;;;17.85;75.07
57847;BME280;43675;50.030;21.952;2022-09-09T03:14:16;98392.84;;;17.87;74.99
57847;BME280;43675;50.030;21.952;2022-09-09T03:16:41;98384.16;;;17.87;74.96
57847;BME280;43675;50.030;21.952;2022-09-09T03:19:07;98387.40;;;17.89;74.88
57847;BME280;43675;50.030;21.952;2022-09-09T03:21:33;98386.86;;;17.90;74.86
57847;BME280;43675;50.030;21.952;2022-09-09T03:23:59;98383.07;;;17.91;74.83
57847;BME280;43675;50.030;21.952;2022-09-09T03:26:32;98381.96;;;17.92;74.82
57847;BME280;43675;50.030;21.952;2022-09-09T03:28:58;98387.67;;;17.93;74.78
57847;BME280;43675;50.030;21.952;2022-09-09T03:31:24;98388.48;;;17.88;74.83
57847;BME280;43675;50.030;21.952;2022-09-09T03:33:50;98387.66;;;17.88;74.89
57847;BME280;43675;50.030;21.952;2022-09-09T03:36:16;98381.98;;;17.87;74.97
57847;BME280;43675;50.030;21.952;2022-09-09T03:38:42;98393.09;;;17.88;74.98
57847;BME280;43675;50.030;21.952;2022-09-09T03:41:08;98390.94;;;17.90;75.04
57847;BME280;43675;50.030;21.952;2022-09-09T03:43:40;98384.43;;;17.91;75.08
57847;BME280;43675;50.030;21.952;2022-09-09T03:46:06;98382.53;;;17.94;75.09
57847;BME280;43675;50.030;21.952;2022-09-09T03:48:31;98383.06;;;17.96;75.15
57847;BME280;43675;50.030;21.952;2022-09-09T03:50:57;98389.88;;;17.99;75.13
57847;BME280;43675;50.030;21.952;2022-09-09T03:53:23;98386.87;;;18.00;75.15
57847;BME280;43675;50.030;21.952;2022-09-09T03:55:51;98383.61;;;18.01;75.14
57847;BME280;43675;50.030;21.952;2022-09-09T03:58:18;98386.61;;;18.02;75.22
57847;BME280;43675;50.030;21.952;2022-09-09T04:03:23;98384.45;;;18.06;75.30
57847;BME280;43675;50.030;21.952;2022-09-09T04:05:49;98381.20;;;18.07;75.30
57847;BME280;43675;50.030;21.952;2022-09-09T04:08:15;98382.83;;;18.10;75.31
57847;BME280;43675;50.030;21.952;2022-09-09T04:10:40;98387.17;;;18.14;75.28
57847;BME280;43675;50.030;21.952;2022-09-09T04:13:06;98380.38;;;18.16;75.23
57847;BME280;43675;50.030;21.952;2022-09-09T04:15:32;98383.91;;;18.19;75.23
57847;BME280;43675;50.030;21.952;2022-09-09T04:17:57;98382.28;;;18.21;75.26
57847;BME280;43675;50.030;21.952;2022-09-09T04:20:23;98383.63;;;18.23;75.28
57847;BME280;43675;50.030;21.952;2022-09-09T04:22:49;98381.73;;;18.24;75.27
57847;BME280;43675;50.030;21.952;2022-09-09T04:25:15;98387.45;;;18.25;75.12
57847;BME280;43675;50.030;21.952;2022-09-09T04:27:47;98391.78;;;18.23;74.98
57847;BME280;43675;50.030;21.952;2022-09-09T04:30:12;98389.61;;;18.20;74.86
57847;BME280;43675;50.030;21.952;2022-09-09T04:32:38;98388.81;;;18.15;74.89
57847;BME280;43675;50.030;21.952;2022-09-09T04:35:04;98387.71;;;18.13;74.89
57847;BME280;43675;50.030;21.952;2022-09-09T04:37:30;98383.11;;;18.11;74.88
57847;BME280;43675;50.030;21.952;2022-09-09T04:40:02;98385.55;;;18.10;74.95
57847;BME280;43675;50.030;21.952;2022-09-09T04:42:28;98387.44;;;18.10;74.92
57847;BME280;43675;50.030;21.952;2022-09-09T04:44:54;98388.80;;;18.10;74.95
57847;BME280;43675;50.030;21.952;2022-09-09T04:47:19;98396.69;;;18.11;74.96
57847;BME280;43675;50.030;21.952;2022-09-09T04:49:45;98396.39;;;18.13;74.92
57847;BME280;43675;50.030;21.952;2022-09-09T04:52:11;98405.11;;;18.15;74.90
57847;BME280;43675;50.030;21.952;2022-09-09T04:54:36;98405.36;;;18.16;74.88
57847;BME280;43675;50.030;21.952;2022-09-09T04:57:02;98414.33;;;18.16;74.88
57847;BME280;43675;50.030;21.952;2022-09-09T04:59:28;98411.07;;;18.17;74.86
57847;BME280;43675;50.030;21.952;2022-09-09T05:01:54;98413.25;;;18.17;74.89
57847;BME280;43675;50.030;21.952;2022-09-09T05:04:21;98413.78;;;18.17;75.07
57847;BME280;43675;50.030;21.952;2022-09-09T05:06:47;98413.53;;;18.18;75.33
57847;BME280;43675;50.030;21.952;2022-09-09T05:09:13;98419.21;;;18.19;75.53
57847;BME280;43675;50.030;21.952;2022-09-09T05:11:38;98420.03;;;18.20;75.68
57847;BME280;43675;50.030;21.952;2022-09-09T05:14:04;98422.75;;;18.20;75.85
57847;BME280;43675;50.030;21.952;2022-09-09T05:16:30;98427.64;;;18.18;75.95
57847;BME280;43675;50.030;21.952;2022-09-09T05:18:56;98421.66;;;18.16;76.02
57847;BME280;43675;50.030;21.952;2022-09-09T05:21:24;98423.84;;;18.11;76.09
57847;BME280;43675;50.030;21.952;2022-09-09T05:23:57;98432.50;;;18.08;76.25
57847;BME280;43675;50.030;21.952;2022-09-09T05:26:23;98428.97;;;18.05;76.37
57847;BME280;43675;50.030;21.952;2022-09-09T05:28:55;98431.16;;;18.06;76.52
57847;BME280;43675;50.030;21.952;2022-09-09T05:31:21;98428.16;;;18.05;76.65
57847;BME280;43675;50.030;21.952;2022-09-09T05:33:47;98432.77;;;18.04;76.73
57847;BME280;43675;50.030;21.952;2022-09-09T05:36:15;98428.97;;;18.05;76.72
57847;BME280;43675;50.030;21.952;2022-09-09T05:38:42;98428.44;;;18.06;76.78
57847;BME280;43675;50.030;21.952;2022-09-09T05:41:09;98431.69;;;18.05;76.99
57847;BME280;43675;50.030;21.952;2022-09-09T05:43:36;98436.33;;;18.07;77.07
57847;BME280;43675;50.030;21.952;2022-09-09T05:46:07;98434.95;;;18.12;77.06
57847;BME280;43675;50.030;21.952;2022-09-09T05:48:38;98437.95;;;18.16;76.98
57847;BME280;43675;50.030;21.952;2022-09-09T05:51:05;98437.41;;;18.16;76.96
57847;BME280;43675;50.030;21.952;2022-09-09T05:53:31;98440.95;;;18.17;76.94
57847;BME280;43675;50.030;21.952;2022-09-09T05:56:06;98437.69;;;18.20;76.99
57847;BME280;43675;50.030;21.952;2022-09-09T05:58:34;98440.13;;;18.24;76.90
57847;BME280;43675;50.030;21.952;2022-09-09T06:01:08;98437.44;;;18.29;76.86
57847;BME280;43675;50.030;21.952;2022-09-09T06:03:35;98448.05;;;18.38;76.78
57847;BME280;43675;50.030;21.952;2022-09-09T06:06:03;98449.67;;;18.44;76.63
57847;BME280;43675;50.030;21.952;2022-09-09T06:08:29;98453.24;;;18.52;76.44
57847;BME280;43675;50.030;21.952;2022-09-09T06:11:03;98447.81;;;18.60;76.25
57847;BME280;43675;50.030;21.952;2022-09-09T06:13:29;98451.61;;;18.66;76.01
57847;BME280;43675;50.030;21.952;2022-09-09T06:15:55;98454.06;;;18.68;75.94
57847;BME280;43675;50.030;21.952;2022-09-09T06:18:21;98459.22;;;18.74;75.85
57847;BME280;43675;50.030;21.952;2022-09-09T06:21:01;98453.27;;;18.77;75.69
57847;BME280;43675;50.030;21.952;2022-09-09T06:23:33;98460.33;;;18.81;75.61
57847;BME280;43675;50.030;21.952;2022-09-09T06:26:08;98460.86;;;18.80;75.57
57847;BME280;43675;50.030;21.952;2022-09-09T06:28:34;98463.58;;;18.80;75.45
57847;BME280;43675;50.030;21.952;2022-09-09T06:31:09;98465.22;;;18.81;75.36
57847;BME280;43675;50.030;21.952;2022-09-09T06:33:37;98467.92;;;18.84;75.27
57847;BME280;43675;50.030;21.952;2022-09-09T06:36:04;98468.47;;;18.83;75.18
57847;BME280;43675;50.030;21.952;2022-09-09T06:38:29;98478.24;;;18.82;75.14
57847;BME280;43675;50.030;21.952;2022-09-09T06:40:57;98473.64;;;18.80;75.03
57847;BME280;43675;50.030;21.952;2022-09-09T06:43:23;98479.09;;;18.77;74.91
57847;BME280;43675;50.030;21.952;2022-09-09T06:46:02;98479.88;;;18.70;74.89
57847;BME280;43675;50.030;21.952;2022-09-09T06:48:24;98484.48;;;18.62;74.99
57847;BME280;43675;50.030;21.952;2022-09-09T06:50:50;98486.41;;;18.57;74.98
57847;BME280;43675;50.030;21.952;2022-09-09T06:53:17;98491.57;;;18.53;74.99
57847;BME280;43675;50.030;21.952;2022-09-09T06:55:42;98486.08;;;18.51;75.00
57847;BME280;43675;50.030;21.952;2022-09-09T06:58:08;98493.75;;;18.54;74.91
57847;BME280;43675;50.030;21.952;2022-09-09T07:00:34;98503.27;;;18.61;74.80
57847;BME280;43675;50.030;21.952;2022-09-09T07:03:00;98505.97;;;18.66;74.39
57847;BME280;43675;50.030;21.952;2022-09-09T07:05:25;98495.64;;;18.63;74.06
57847;BME280;43675;50.030;21.952;2022-09-09T07:07:51;98504.06;;;18.59;74.03
57847;BME280;43675;50.030;21.952;2022-09-09T07:10:16;98507.60;;;18.60;73.96
57847;BME280;43675;50.030;21.952;2022-09-09T07:12:42;98514.39;;;18.60;74.01
57847;BME280;43675;50.030;21.952;2022-09-09T07:15:09;98516.56;;;18.63;73.90
57847;BME280;43675;50.030;21.952;2022-09-09T07:17:34;98519.29;;;18.70;73.87
57847;BME280;43675;50.030;21.952;2022-09-09T07:20:00;98520.39;;;18.82;73.70
57847;BME280;43675;50.030;21.952;2022-09-09T07:22:32;98523.66;;;18.92;73.50
57847;BME280;43675;50.030;21.952;2022-09-09T07:24:58;98520.40;;;19.07;73.39
57847;BME280;43675;50.030;21.952;2022-09-09T07:27:24;98518.48;;;19.28;72.94
57847;BME280;43675;50.030;21.952;2022-09-09T07:29:56;98525.28;;;19.48;72.68
57847;BME280;43675;50.030;21.952;2022-09-09T07:32:21;98533.66;;;19.69;72.17
57847;BME280;43675;50.030;21.952;2022-09-09T07:34:47;98531.98;;;19.81;71.66
57847;BME280;43675;50.030;21.952;2022-09-09T07:37:13;98528.13;;;19.92;71.53
57847;BME280;43675;50.030;21.952;2022-09-09T07:39:39;98531.89;;;20.04;71.13
57847;BME280;43675;50.030;21.952;2022-09-09T07:42:05;98531.56;;;20.15;70.90
57847;BME280;43675;50.030;21.952;2022-09-09T07:44:37;98538.61;;;20.24;70.31
57847;BME280;43675;50.030;21.952;2022-09-09T07:47:03;98534.25;;;20.25;70.05
57847;BME280;43675;50.030;21.952;2022-09-09T07:49:29;98536.43;;;20.34;69.68
57847;BME280;43675;50.030;21.952;2022-09-09T07:51:54;98541.59;;;20.38;69.27
57847;BME280;43675;50.030;21.952;2022-09-09T07:54:20;98538.86;;;20.38;68.97
57847;BME280;43675;50.030;21.952;2022-09-09T07:56:46;98536.38;;;20.41;69.08
57847;BME280;43675;50.030;21.952;2022-09-09T07:59:12;98534.12;;;20.51;68.57
57847;BME280;43675;50.030;21.952;2022-09-09T08:01:47;98546.64;;;20.54;67.91
57847;BME280;43675;50.030;21.952;2022-09-09T08:04:18;98548.28;;;20.55;67.74
57847;BME280;43675;50.030;21.952;2022-09-09T08:06:47;98554.53;;;20.61;67.74
57847;BME280;43675;50.030;21.952;2022-09-09T08:09:14;98548.42;;;20.74;67.44
57847;BME280;43675;50.030;21.952;2022-09-09T08:11:41;98552.89;;;21.01;67.11
57847;BME280;43675;50.030;21.952;2022-09-09T08:14:08;98555.73;;;21.22;66.18
57847;BME280;43675;50.030;21.952;2022-09-09T08:16:37;98558.55;;;21.44;65.37
57847;BME280;43675;50.030;21.952;2022-09-09T08:19:04;98550.16;;;21.64;64.52
57847;BME280;43675;50.030;21.952;2022-09-09T08:21:31;98556.83;;;21.79;64.05
57847;BME280;43675;50.030;21.952;2022-09-09T08:24:04;98558.34;;;21.88;63.80
57847;BME280;43675;50.030;21.952;2022-09-09T08:26:33;98555.33;;;21.89;64.38
57847;BME280;43675;50.030;21.952;2022-09-09T08:29:00;98559.28;;;22.04;63.39
57847;BME280;43675;50.030;21.952;2022-09-09T08:31:40;98571.47;;;22.14;62.44
57847;BME280;43675;50.030;21.952;2022-09-09T08:34:03;98564.65;;;22.12;61.99
57847;BME280;43675;50.030;21.952;2022-09-09T08:36:32;98563.59;;;22.10;62.23
57847;BME280;43675;50.030;21.952;2022-09-09T08:39:00;98564.75;;;22.04;62.16
57847;BME280;43675;50.030;21.952;2022-09-09T08:47:03;98571.03;;;21.76;62.05
57847;BME280;43675;50.030;21.952;2022-09-09T08:49:39;98547.31;;;21.74;61.97
57847;BME280;43675;50.030;21.952;2022-09-09T08:52:03;98549.03;;;21.67;61.57
57847;BME280;43675;50.030;21.952;2022-09-09T08:54:33;98543.97;;;21.56;61.86
57847;BME280;43675;50.030;21.952;2022-09-09T08:57:00;98547.01;;;21.52;61.50
57847;BME280;43675;50.030;21.952;2022-09-09T08:59:25;98543.47;;;21.49;61.35
57847;BME280;43675;50.030;21.952;2022-09-09T09:01:59;98549.20;;;21.50;61.19
57847;BME280;43675;50.030;21.952;2022-09-09T09:10:01;98551.48;;;21.66;61.26
57847;BME280;43675;50.030;21.952;2022-09-09T09:12:30;98552.19;;;21.77;60.92
57847;BME280;43675;50.030;21.952;2022-09-09T09:14:58;98559.23;;;21.83;60.37
57847;BME280;43675;50.030;21.952;2022-09-09T09:17:27;98556.78;;;21.82;60.26
57847;BME280;43675;50.030;21.952;2022-09-09T09:19:53;98561.66;;;21.87;60.04
57847;BME280;43675;50.030;21.952;2022-09-09T09:22:32;98555.91;;;21.91;59.74
57847;BME280;43675;50.030;21.952;2022-09-09T09:30:18;98560.31;;;22.11;59.01
57847;BME280;43675;50.030;21.952;2022-09-09T09:33:01;98561.38;;;22.34;58.55
57847;BME280;43675;50.030;21.952;2022-09-09T09:35:23;98561.83;;;22.62;58.18
57847;BME280;43675;50.030;21.952;2022-09-09T09:37:49;98563.28;;;22.76;57.86
57847;BME280;43675;50.030;21.952;2022-09-09T09:40:18;98563.38;;;22.87;56.81
57847;BME280;43675;50.030;21.952;2022-09-09T09:42:55;98562.77;;;22.92;56.14
57847;BME280;43675;50.030;21.952;2022-09-09T09:45:28;98562.11;;;22.98;55.42
57847;BME280;43675;50.030;21.952;2022-09-09T09:48:02;98564.02;;;23.00;55.33
57847;BME280;43675;50.030;21.952;2022-09-09T09:50:30;98564.16;;;23.08;55.25
57847;BME280;43675;50.030;21.952;2022-09-09T09:53:03;98568.16;;;23.14;54.78
57847;BME280;43675;50.030;21.952;2022-09-09T09:55:25;98568.47;;;23.12;54.49
57847;BME280;43675;50.030;21.952;2022-09-09T09:57:51;98563.13;;;23.04;54.24
57847;BME280;43675;50.030;21.952;2022-09-09T10:00:20;98570.88;;;22.97;54.52
57847;BME280;43675;50.030;21.952;2022-09-09T10:02:47;98569.82;;;22.96;54.67
57847;BME280;43675;50.030;21.952;2022-09-09T10:07:45;98576.23;;;22.89;54.49
57847;BME280;43675;50.030;21.952;2022-09-09T10:10:20;98574.42;;;22.98;54.68
57847;BME280;43675;50.030;21.952;2022-09-09T10:23:10;98565.38;;;24.35;52.34
57847;BME280;43675;50.030;21.952;2022-09-09T10:28:52;98556.78;;;24.53;51.55
57847;BME280;43675;50.030;21.952;2022-09-09T10:36:59;98569.89;;;24.42;51.51
57847;BME280;43675;50.030;21.952;2022-09-09T10:39:34;98568.48;;;24.45;51.15
57847;BME280;43675;50.030;21.952;2022-09-09T10:42:06;98565.38;;;24.49;51.26
57847;BME280;43675;50.030;21.952;2022-09-09T10:44:44;98562.84;;;24.64;51.27
57847;BME280;43675;50.030;21.952;2022-09-09T10:47:39;98562.68;;;24.85;50.95
57847;BME280;43675;50.030;21.952;2022-09-09T10:50:28;98563.61;;;25.03;50.78
57847;BME280;43675;50.030;21.952;2022-09-09T10:55:40;98562.56;;;25.23;50.75
57847;BME280;43675;50.030;21.952;2022-09-09T10:58:10;98563.31;;;25.26;50.54
57847;BME280;43675;50.030;21.952;2022-09-09T11:00:42;98565.67;;;25.30;50.46
57847;BME280;43675;50.030;21.952;2022-09-09T11:03:20;98565.12;;;25.31;49.92
57847;BME280;43675;50.030;21.952;2022-09-09T11:05:59;98563.31;;;25.26;50.14
57847;BME280;43675;50.030;21.952;2022-09-09T11:08:26;98574.19;;;25.20;50.39
57847;BME280;43675;50.030;21.952;2022-09-09T11:10:59;98580.34;;;25.15;50.59
57847;BME280;43675;50.030;21.952;2022-09-09T11:13:55;98580.98;;;25.12;50.68
57847;BME280;43675;50.030;21.952;2022-09-09T11:16:42;98582.09;;;25.11;50.63
57847;BME280;43675;50.030;21.952;2022-09-09T11:19:28;98590.59;;;25.12;50.57
57847;BME280;43675;50.030;21.952;2022-09-09T11:21:55;98584.73;;;25.16;50.63
57847;BME280;43675;50.030;21.952;2022-09-09T11:35:33;98598.10;;;25.84;49.32
57847;BME280;43675;50.030;21.952;2022-09-09T11:40:44;98600.52;;;26.16;48.57
57847;BME280;43675;50.030;21.952;2022-09-09T11:43:13;98598.56;;;26.28;48.51
57847;BME280;43675;50.030;21.952;2022-09-09T11:45:41;98593.66;;;26.36;48.18
57847;BME280;43675;50.030;21.952;2022-09-09T11:48:41;98596.52;;;26.42;47.69
57847;BME280;43675;50.030;21.952;2022-09-09T11:51:09;98596.92;;;26.38;47.42
57847;BME280;43675;50.030;21.952;2022-09-09T11:56:26;98603.59;;;26.26;47.74
57847;BME280;43675;50.030;21.952;2022-09-09T11:59:05;98604.80;;;26.22;47.98
57847;BME280;43675;50.030;21.952;2022-09-09T12:01:40;98603.61;;;26.15;48.04
57847;BME280;43675;50.030;21.952;2022-09-09T12:04:13;98599.27;;;26.03;48.41
57847;BME280;43675;50.030;21.952;2022-09-09T12:06:49;98599.22;;;25.94;48.40
57847;BME280;43675;50.030;21.952;2022-09-09T12:09:24;98591.63;;;26.00;48.58
57847;BME280;43675;50.030;21.952;2022-09-09T12:11:50;98592.02;;;26.15;48.38
57847;BME280;43675;50.030;21.952;2022-09-09T12:14:34;98585.58;;;26.40;47.97
57847;BME280;43675;50.030;21.952;2022-09-09T12:16:48;98576.32;;;26.64;47.73
57847;BME280;43675;50.030;21.952;2022-09-09T12:19:18;98566.91;;;26.85;46.68
57847;BME280;43675;50.030;21.952;2022-09-09T12:22:04;98566.10;;;26.93;46.20
57847;BME280;43675;50.030;21.952;2022-09-09T12:24:43;98570.39;;;26.96;46.23
57847;BME280;43675;50.030;21.952;2022-09-09T12:27:12;98568.86;;;26.93;46.32
57847;BME280;43675;50.030;21.952;2022-09-09T12:32:24;98569.44;;;26.64;46.33
57847;BME280;43675;50.030;21.952;2022-09-09T12:35:00;98572.48;;;26.45;46.38
57847;BME280;43675;50.030;21.952;2022-09-09T12:37:35;98574.09;;;26.38;46.74
57847;BME280;43675;50.030;21.952;2022-09-09T12:40:26;98571.00;;;26.39;46.72
57847;BME280;43675;50.030;21.952;2022-09-09T12:42:52;98572.62;;;26.40;46.41
57847;BME280;43675;50.030;21.952;2022-09-09T12:45:22;98567.05;;;26.34;46.56
57847;BME280;43675;50.030;21.952;2022-09-09T12:47:56;98560.08;;;26.37;46.37
57847;BME280;43675;50.030;21.952;2022-09-09T12:50:29;98551.58;;;26.35;46.23
57847;BME280;43675;50.030;21.952;2022-09-09T12:52:58;98550.38;;;26.30;46.41
57847;BME280;43675;50.030;21.952;2022-09-09T12:55:30;98554.50;;;26.30;46.44
57847;BME280;43675;50.030;21.952;2022-09-09T12:57:57;98556.77;;;26.37;45.85
57847;BME280;43675;50.030;21.952;2022-09-09T13:00:24;98555.89;;;26.48;45.37
57847;BME280;43675;50.030;21.952;2022-09-09T13:02:56;98561.83;;;26.61;44.94
57847;BME280;43675;50.030;21.952;2022-09-09T13:05:25;98554.38;;;26.70;44.85
57847;BME280;43675;50.030;21.952;2022-09-09T13:07:51;98554.73;;;26.77;44.29
57847;BME280;43675;50.030;21.952;2022-09-09T13:10:28;98552.05;;;26.83;44.43
57847;BME280;43675;50.030;21.952;2022-09-09T13:12:55;98553.55;;;26.89;44.73
57847;BME280;43675;50.030;21.952;2022-09-09T13:15:23;98557.34;;;26.91;45.04
57847;BME280;43675;50.030;21.952;2022-09-09T13:17:55;98559.13;;;26.95;45.27
57847;BME280;43675;50.030;21.952;2022-09-09T13:20:19;98562.60;;;26.98;45.11
57847;BME280;43675;50.030;21.952;2022-09-09T13:22:47;98559.95;;;27.04;44.94
57847;BME280;43675;50.030;21.952;2022-09-09T13:25:20;98565.05;;;27.08;44.78
57847;BME280;43675;50.030;21.952;2022-09-09T13:30:35;98565.77;;;27.03;44.58
57847;BME280;43675;50.030;21.952;2022-09-09T13:35:53;98568.41;;;26.79;44.81
57847;BME280;43675;50.030;21.952;2022-09-09T13:38:16;98568.41;;;26.79;45.02
57847;BME280;43675;50.030;21.952;2022-09-09T13:41:04;98567.06;;;26.88;44.91
57847;BME280;43675;50.030;21.952;2022-09-09T13:43:44;98567.70;;;27.02;44.75
57847;BME280;43675;50.030;21.952;2022-09-09T13:46:31;98558.38;;;27.18;44.68
57847;BME280;43675;50.030;21.952;2022-09-09T13:49:17;98559.18;;;27.36;44.31
57847;BME280;43675;50.030;21.952;2022-09-09T13:51:43;98546.98;;;27.45;44.06
57847;BME280;43675;50.030;21.952;2022-09-09T13:54:10;98547.00;;;27.54;43.96
57847;BME280;43675;50.030;21.952;2022-09-09T13:56:38;98542.70;;;27.59;43.68
57847;BME280;43675;50.030;21.952;2022-09-09T13:59:06;98555.16;;;27.65;43.37
57847;BME280;43675;50.030;21.952;2022-09-09T14:01:32;98551.66;;;27.70;43.19
57847;BME280;43675;50.030;21.952;2022-09-09T14:03:57;98551.49;;;27.76;43.13
57847;BME280;43675;50.030;21.952;2022-09-09T14:06:23;98553.58;;;27.79;43.15
57847;BME280;43675;50.030;21.952;2022-09-09T14:08:50;98550.63;;;27.84;42.92
57847;BME280;43675;50.030;21.952;2022-09-09T14:11:16;98545.08;;;27.92;42.68
57847;BME280;43675;50.030;21.952;2022-09-09T14:13:42;98530.97;;;27.94;42.54
57847;BME280;43675;50.030;21.952;2022-09-09T14:16:08;98531.14;;;27.89;42.42
57847;BME280;43675;50.030;21.952;2022-09-09T14:18:33;98532.19;;;27.76;42.56
57847;BME280;43675;50.030;21.952;2022-09-09T14:20:59;98529.73;;;27.59;43.00
57847;BME280;43675;50.030;21.952;2022-09-09T14:23:25;98526.73;;;27.41;43.13
57847;BME280;43675;50.030;21.952;2022-09-09T14:25:51;98525.47;;;27.21;43.51
57847;BME280;43675;50.030;21.952;2022-09-09T14:28:23;98534.25;;;27.06;43.88
57847;BME280;43675;50.030;21.952;2022-09-09T14:30:49;98533.12;;;26.90;44.28
57847;BME280;43675;50.030;21.952;2022-09-09T14:33:15;98521.59;;;26.79;44.47
57847;BME280;43675;50.030;21.952;2022-09-09T14:35:42;98520.16;;;26.73;44.67
57847;BME280;43675;50.030;21.952;2022-09-09T14:38:08;98519.80;;;26.66;44.61
57847;BME280;43675;50.030;21.952;2022-09-09T14:40:35;98518.25;;;26.54;44.83
57847;BME280;43675;50.030;21.952;2022-09-09T14:43:09;98518.58;;;26.44;45.10
57847;BME280;43675;50.030;21.952;2022-09-09T14:45:35;98523.98;;;26.29;45.29